Akaska, South Dakota
Current Conditions -  °F | °C
As of 8:52 PM on Wednesday 22 Oct 2014 (Local Time) from KMBG Reporting Station
Clear Clear  
Wind Chill: 53°   Ceiling: Unl
Heat Index: 53°   Visibility: 10mi
Dew Point: 38°   Wind: 6mph
Humidity: 57%   Direction: 290°WNW
Pressure: 29.92"   Gusts: NA
Location:  45.33°N, 100.12°W
Report Text: KMBG 230152Z AUTO 29005KT 10SM CLR 12/03 A2992 RMK AO2 SLP133 T01170033
Loading
Personal Weather Stations






























Interactive Weather Map New forecast layout! Learn more

10-Day Weather Forecast

Advertisements
Track Severe Weather on mobile